Time;durP1;ratioP1;P1;durP2;ratioP2;P2;SDS_P1;SDS_P2;PMS_P1;PMS_P2;Temp;Humidity;BMP_temperature;BMP_pressure;BME280_temperature;BME280_humidity;BME280_pressure;Samples;Min_cycle;Max_cycle;Signal;HPM_P1;HPM_P2
2024/04/03 00:00:42;;;;;;;1.53;1.13;;;8.00;87.90;;;;;;4983657;28;20618;-78
2024/04/03 00:03:08;;;;;;;2.47;1.27;;;8.00;88.40;;;;;;4989127;28;20218;-78
2024/04/03 00:05:34;;;;;;;1.47;1.23;;;8.00;88.60;;;;;;4981350;28;20633;-78
2024/04/03 00:08:00;;;;;;;3.20;1.20;;;8.10;88.50;;;;;;4984257;28;20216;-79
2024/04/03 00:10:27;;;;;;;3.50;1.70;;;8.00;88.10;;;;;;4986155;28;20774;-78
2024/04/03 00:12:54;;;;;;;1.70;1.27;;;8.00;88.10;;;;;;4988122;28;20975;-78
2024/04/03 00:15:21;;;;;;;4.20;1.93;;;8.00;88.60;;;;;;5009327;28;21371;-78
2024/04/03 00:17:47;;;;;;;2.23;1.60;;;8.00;88.70;;;;;;5035378;28;20643;-78
2024/04/03 00:20:14;;;;;;;2.40;1.67;;;8.00;90.10;;;;;;4983631;28;20999;-78
2024/04/03 00:22:40;;;;;;;2.90;1.40;;;8.00;90.10;;;;;;4969469;28;20630;-78
2024/04/03 00:25:07;;;;;;;5.23;2.40;;;7.90;89.80;;;;;;4974729;28;20637;-78
2024/04/03 00:27:33;;;;;;;2.03;1.20;;;7.90;90.00;;;;;;4987483;28;20298;-77
2024/04/03 00:30:01;;;;;;;1.73;1.10;;;7.90;90.20;;;;;;5030722;28;20721;-78
2024/04/03 00:32:27;;;;;;;1.20;1.10;;;7.80;90.40;;;;;;5035614;28;20625;-77
2024/04/03 00:34:53;;;;;;;1.43;1.20;;;7.70;90.40;;;;;;4993798;28;20644;-77
2024/04/03 00:37:20;;;;;;;1.47;1.23;;;7.70;90.70;;;;;;4978240;28;20674;-77
2024/04/03 00:39:47;;;;;;;3.77;1.53;;;7.70;90.80;;;;;;5011911;28;20988;-77
2024/04/03 00:42:12;;;;;;;1.80;1.33;;;7.70;90.70;;;;;;5025497;28;20987;-77
2024/04/03 00:44:48;;;;;;;2.33;1.50;;;7.80;90.70;;;;;;5011868;28;20629;-77
2024/04/03 00:47:16;;;;;;;1.50;1.33;;;7.80;90.40;;;;;;4969029;28;20285;-79
2024/04/03 00:49:44;;;;;;;3.00;2.13;;;7.90;90.20;;;;;;4975843;28;20699;-77
2024/04/03 00:52:11;;;;;;;2.13;1.80;;;7.90;90.00;;;;;;4976478;28;20638;-77
2024/04/03 00:54:38;;;;;;;2.60;1.87;;;8.00;89.90;;;;;;5017532;28;20800;-77
2024/04/03 00:57:05;;;;;;;3.33;2.27;;;8.00;90.00;;;;;;4985917;28;20677;-77
2024/04/03 00:59:35;;;;;;;1.17;1.07;;;8.00;90.00;;;;;;4992014;28;20638;-78
2024/04/03 01:02:01;;;;;;;1.97;1.60;;;8.00;90.00;;;;;;4988188;28;20685;-78
2024/04/03 01:04:29;;;;;;;1.20;1.10;;;7.90;89.70;;;;;;5010159;28;20614;-77
2024/04/03 01:06:56;;;;;;;10.43;1.87;;;8.00;89.30;;;;;;4996137;28;20634;-77
2024/04/03 01:09:23;;;;;;;1.70;1.27;;;7.90;89.00;;;;;;5017734;28;20626;-77
2024/04/03 01:11:50;;;;;;;2.60;1.10;;;8.00;89.50;;;;;;5034225;28;20207;-79
2024/04/03 01:14:17;;;;;;;1.50;1.27;;;7.80;89.50;;;;;;5000182;28;20626;-77
2024/04/03 01:16:43;;;;;;;2.97;1.33;;;7.90;89.10;;;;;;5018394;28;21005;-76
2024/04/03 01:19:11;;;;;;;1.87;1.30;;;8.00;89.10;;;;;;4987169;28;20634;-77
2024/04/03 01:21:39;;;;;;;1.53;1.07;;;8.00;89.20;;;;;;4985645;28;20630;-77
2024/04/03 01:24:09;;;;;;;2.53;1.65;;;8.00;89.40;;;;;;4992176;28;20641;-77
2024/04/03 01:26:36;;;;;;;2.15;1.50;;;8.10;89.10;;;;;;4990545;28;20209;-78
2024/04/03 01:29:03;;;;;;;1.47;1.30;;;8.10;88.70;;;;;;4970218;28;20206;-78
2024/04/03 01:31:30;;;;;;;2.57;1.90;;;8.00;89.30;;;;;;5020598;28;20258;-77
2024/04/03 01:33:58;;;;;;;1.90;1.67;;;7.90;89.60;;;;;;5002978;28;20634;-78
2024/04/03 01:36:25;;;;;;;3.20;1.33;;;7.80;89.80;;;;;;4969243;28;20752;-78
2024/04/03 01:38:53;;;;;;;2.10;1.50;;;7.80;89.90;;;;;;4991391;28;20716;-77
2024/04/03 01:41:21;;;;;;;2.93;1.20;;;7.70;89.70;;;;;;5015222;28;20621;-77
2024/04/03 01:43:49;;;;;;;3.63;1.40;;;7.70;90.00;;;;;;4968059;28;20797;-78
2024/04/03 01:46:15;;;;;;;3.17;1.63;;;7.70;90.10;;;;;;4997211;28;21436;-77
2024/04/03 01:48:42;;;;;;;2.50;1.60;;;7.70;90.20;;;;;;4982490;28;20627;-77
2024/04/03 01:51:09;;;;;;;1.43;1.30;;;7.70;90.20;;;;;;5055594;28;20653;-78
2024/04/03 01:53:36;;;;;;;2.03;1.70;;;7.60;90.20;;;;;;5054095;28;20653;-78
2024/04/03 01:56:05;;;;;;;2.40;1.30;;;7.60;90.10;;;;;;4977628;28;21323;-77
2024/04/03 01:58:34;;;;;;;3.37;1.33;;;7.50;89.80;;;;;;4983056;28;20633;-77
2024/04/03 02:01:00;;;;;;;1.33;1.23;;;7.50;89.80;;;;;;5003063;28;20720;-77
2024/04/03 02:03:27;;;;;;;3.43;2.13;;;7.60;90.20;;;;;;5046298;28;20725;-78
2024/04/03 02:05:54;;;;;;;1.13;1.00;;;7.60;90.10;;;;;;5054768;28;20202;-78
2024/04/03 02:08:22;;;;;;;2.80;1.50;;;7.70;90.30;;;;;;4981977;28;20730;-78
2024/04/03 02:10:49;;;;;;;3.30;1.30;;;7.70;90.20;;;;;;4979940;28;20691;-77
2024/04/03 02:13:16;;;;;;;2.10;1.20;;;7.70;90.20;;;;;;4998211;28;20622;-77
2024/04/03 02:15:51;;;;;;;1.67;1.57;;;7.70;89.70;;;;;;4987198;28;20704;-77
2024/04/03 02:18:18;;;;;;;1.87;1.43;;;7.60;89.50;;;;;;4991695;28;21076;-77
2024/04/03 02:20:44;;;;;;;1.70;1.10;;;7.80;89.90;;;;;;4996073;28;20679;-77
2024/04/03 02:23:11;;;;;;;1.53;1.40;;;7.70;89.20;;;;;;4973521;28;21044;-77
2024/04/03 02:25:38;;;;;;;3.77;1.47;;;7.70;90.00;;;;;;4989890;28;20230;-78
2024/04/03 02:28:06;;;;;;;1.43;1.20;;;7.60;89.10;;;;;;4980681;28;20633;-78
2024/04/03 02:30:32;;;;;;;1.77;1.35;;;7.70;89.20;;;;;;4988918;28;20628;-77
2024/04/03 02:33:01;;;;;;;1.40;1.30;;;7.70;89.80;;;;;;4985363;28;20213;-77
2024/04/03 02:35:29;;;;;;;1.53;1.10;;;7.70;90.00;;;;;;5018559;28;20633;-77
2024/04/03 02:37:56;;;;;;;1.90;1.03;;;7.90;90.00;;;;;;4990829;28;20664;-77
2024/04/03 02:40:23;;;;;;;1.50;1.30;;;7.90;90.00;;;;;;5003664;28;20626;-78
2024/04/03 02:42:50;;;;;;;2.20;1.40;;;7.90;89.90;;;;;;5019924;28;21457;-77
2024/04/03 02:45:17;;;;;;;7.17;2.00;;;8.00;89.20;;;;;;4986615;28;20724;-77
2024/04/03 02:47:44;;;;;;;3.10;2.20;;;8.10;89.30;;;;;;5059926;28;21054;-77
2024/04/03 02:50:11;;;;;;;3.10;2.80;;;8.00;89.10;;;;;;4991248;28;20616;-77
2024/04/03 02:52:38;;;;;;;3.57;2.13;;;8.10;89.30;;;;;;4999486;28;20624;-77
2024/04/03 02:55:04;;;;;;;5.83;1.93;;;8.00;90.00;;;;;;5024458;28;20725;-77
2024/04/03 02:57:31;;;;;;;3.20;1.77;;;8.00;89.60;;;;;;5022674;28;20671;-77
2024/04/03 02:59:57;;;;;;;2.20;1.80;;;8.10;89.30;;;;;;4999033;28;21196;-77
2024/04/03 03:02:24;;;;;;;1.80;1.30;;;8.10;89.00;;;;;;4982226;28;20662;-77
2024/04/03 03:04:50;;;;;;;0.97;0.87;;;8.10;88.80;;;;;;4999723;28;20661;-78
2024/04/03 03:07:18;;;;;;;1.60;1.17;;;8.20;88.60;;;;;;5018894;28;20795;-78
2024/04/03 03:09:44;;;;;;;3.60;2.13;;;8.10;88.50;;;;;;4980652;28;20214;-77
2024/04/03 03:12:11;;;;;;;2.47;1.20;;;8.10;88.20;;;;;;5053024;28;20618;-78
2024/04/03 03:14:37;;;;;;;2.50;1.03;;;8.10;88.20;;;;;;4989190;28;20655;-78
2024/04/03 03:17:04;;;;;;;3.10;1.40;;;8.10;89.00;;;;;;5050525;28;20775;-78
2024/04/03 03:19:30;;;;;;;1.43;1.20;;;8.20;89.10;;;;;;5034123;28;20195;-77
2024/04/03 03:21:56;;;;;;;1.43;1.33;;;8.20;88.60;;;;;;5024508;28;20621;-77
2024/04/03 03:24:23;;;;;;;3.20;1.03;;;8.10;89.10;;;;;;4982422;28;20206;-76
2024/04/03 03:26:51;;;;;;;1.20;1.10;;;8.10;88.80;;;;;;4974509;28;20630;-77
2024/04/03 03:29:17;;;;;;;1.60;1.30;;;8.20;88.80;;;;;;5064982;28;20626;-80
2024/04/03 03:31:43;;;;;;;4.00;1.37;;;8.20;88.50;;;;;;5021942;28;20626;-77
2024/04/03 03:34:09;;;;;;;2.00;1.23;;;8.10;89.80;;;;;;4990533;28;20679;-77
2024/04/03 03:36:36;;;;;;;5.07;1.50;;;8.10;89.00;;;;;;5047175;28;20670;-78
2024/04/03 03:39:03;;;;;;;2.00;1.40;;;8.10;89.40;;;;;;5062108;28;20203;-78
2024/04/03 03:41:31;;;;;;;2.13;1.50;;;8.20;89.90;;;;;;5036610;28;20692;-78
2024/04/03 03:43:57;;;;;;;1.03;1.03;;;8.20;89.40;;;;;;5001020;28;20637;-78
2024/04/03 03:46:23;;;;;;;3.17;1.63;;;8.30;89.00;;;;;;4990242;28;20730;-78
2024/04/03 03:54:19;;;;;;;3.33;1.50;;;8.20;88.70;;;;;;5018903;28;20618;-78
2024/04/03 03:56:47;;;;;;;1.70;1.30;;;8.20;88.90;;;;;;5067621;28;20663;-78
2024/04/03 03:59:14;;;;;;;2.07;1.63;;;8.20;88.70;;;;;;5061270;28;20970;-77
2024/04/03 04:01:40;;;;;;;2.00;1.77;;;8.20;88.40;;;;;;5000216;28;20644;-78
2024/04/03 04:04:07;;;;;;;2.70;2.23;;;8.30;88.40;;;;;;4987456;28;20732;-78
2024/04/03 04:06:33;;;;;;;2.30;1.30;;;8.30;88.30;;;;;;5005938;28;20640;-78
2024/04/03 04:09:00;;;;;;;2.40;1.87;;;8.30;88.90;;;;;;4978938;28;1091550;-78
2024/04/03 04:11:26;;;;;;;3.23;1.40;;;8.20;87.90;;;;;;4994287;28;20290;-78
2024/04/03 04:13:54;;;;;;;4.50;1.60;;;8.00;88.60;;;;;;5006582;28;21080;-78
2024/04/03 04:16:19;;;;;;;2.07;1.50;;;8.00;88.30;;;;;;4982977;28;20313;-78
2024/04/03 04:18:46;;;;;;;2.80;1.83;;;8.00;88.90;;;;;;5034468;28;20721;-78
2024/04/03 04:21:12;;;;;;;3.07;1.57;;;8.00;89.20;;;;;;5066828;28;20210;-77
2024/04/03 04:23:39;;;;;;;1.50;1.20;;;8.00;89.30;;;;;;5000209;28;21078;-78
2024/04/03 04:26:04;;;;;;;1.67;1.57;;;8.00;89.90;;;;;;5022803;28;20202;-78
2024/04/03 04:28:32;;;;;;;1.73;1.20;;;8.00;89.40;;;;;;5019019;28;20737;-78
2024/04/03 04:31:00;;;;;;;1.83;1.25;;;8.10;89.70;;;;;;5022249;28;20551;-78
2024/04/03 04:33:29;;;;;;;2.53;1.63;;;8.00;89.60;;;;;;5022800;28;20256;-78
2024/04/03 04:35:55;;;;;;;2.00;1.90;;;8.00;90.00;;;;;;5039434;28;20729;-78
2024/04/03 04:38:23;;;;;;;5.40;2.37;;;8.00;90.10;;;;;;4998864;28;20673;-79
2024/04/03 04:40:54;;;;;;;3.30;2.00;;;7.90;90.00;;;;;;5005032;28;20642;-78
2024/04/03 04:43:21;;;;;;;4.57;2.23;;;8.00;90.30;;;;;;4990146;28;20650;-78
2024/04/03 04:45:47;;;;;;;2.10;1.80;;;8.00;90.40;;;;;;5008126;28;20640;-79
2024/04/03 04:48:15;;;;;;;2.70;1.67;;;8.00;90.50;;;;;;5066575;28;20605;-79
2024/04/03 04:50:41;;;;;;;2.03;1.57;;;8.00;90.50;;;;;;4982949;28;20207;-78
2024/04/03 04:53:07;;;;;;;2.40;2.17;;;8.00;89.80;;;;;;4992979;28;20683;-79
2024/04/03 04:55:33;;;;;;;4.23;2.23;;;8.10;90.10;;;;;;5016831;28;21281;-78
2024/04/03 04:58:00;;;;;;;3.83;3.53;;;8.10;90.10;;;;;;4968578;28;20780;-78
2024/04/03 05:00:26;;;;;;;2.50;2.27;;;8.10;89.80;;;;;;4966965;28;20552;-79
2024/04/03 05:02:52;;;;;;;2.70;2.50;;;8.10;89.70;;;;;;4990028;28;20644;-79
2024/04/03 05:05:20;;;;;;;3.97;2.13;;;8.10;89.50;;;;;;4988805;28;20221;-78
2024/04/03 05:07:46;;;;;;;3.23;2.70;;;8.10;89.10;;;;;;4997574;28;20725;-79
2024/04/03 05:10:12;;;;;;;3.23;2.13;;;8.10;88.20;;;;;;4989677;28;20641;-79
2024/04/03 05:12:40;;;;;;;1.63;1.53;;;8.10;89.40;;;;;;4982190;28;20674;-78
2024/04/03 05:15:06;;;;;;;2.47;2.03;;;8.10;88.10;;;;;;4975132;28;20278;-78
2024/04/03 05:17:33;;;;;;;1.30;1.20;;;8.10;88.30;;;;;;5041024;28;20661;-78
2024/04/03 05:19:59;;;;;;;1.90;1.13;;;8.10;87.70;;;;;;5032982;28;20621;-77
2024/04/03 05:22:28;;;;;;;1.40;1.30;;;8.10;87.30;;;;;;4993591;28;20692;-78
2024/04/03 05:24:54;;;;;;;3.43;1.60;;;8.10;87.50;;;;;;5024576;28;20637;-78
2024/04/03 05:27:20;;;;;;;1.87;1.50;;;8.10;87.80;;;;;;5028490;28;20631;-77
2024/04/03 05:29:46;;;;;;;3.40;2.17;;;8.20;87.90;;;;;;5009654;28;20294;-78
2024/04/03 05:32:13;;;;;;;2.63;1.93;;;8.30;87.50;;;;;;4989738;28;20761;-78
2024/04/03 05:34:39;;;;;;;2.30;1.73;;;8.30;87.90;;;;;;4991619;28;20622;-77
2024/04/03 05:37:06;;;;;;;2.10;1.70;;;8.40;87.20;;;;;;4974534;28;20676;-77
2024/04/03 05:39:33;;;;;;;3.00;1.43;;;8.40;86.60;;;;;;4969384;28;20233;-75
2024/04/03 05:42:00;;;;;;;1.60;1.50;;;8.40;87.10;;;;;;4977316;28;20638;-73
2024/04/03 05:44:25;;;;;;;10.13;2.60;;;8.40;87.40;;;;;;5000444;28;20733;-75
2024/04/03 05:46:52;;;;;;;1.70;1.40;;;8.40;87.30;;;;;;5024389;28;21071;-76
2024/04/03 05:49:18;;;;;;;2.13;1.93;;;8.50;87.80;;;;;;4990751;28;20210;-73
2024/04/03 05:51:45;;;;;;;2.70;1.70;;;8.50;87.80;;;;;;5047141;28;20626;-75
2024/04/03 05:54:11;;;;;;;2.43;1.50;;;8.60;87.40;;;;;;5035189;28;20207;-75
2024/04/03 05:56:39;;;;;;;1.60;1.27;;;8.50;87.90;;;;;;4998148;28;21095;-72
2024/04/03 05:59:05;;;;;;;2.57;1.57;;;8.50;88.60;;;;;;5005469;28;20209;-74
2024/04/03 06:01:33;;;;;;;1.83;1.37;;;8.50;90.90;;;;;;5023795;28;20622;-74
2024/04/03 06:03:59;;;;;;;1.70;1.10;;;8.50;92.20;;;;;;5044497;28;20208;-73
2024/04/03 06:06:25;;;;;;;2.83;1.60;;;8.50;92.00;;;;;;5012714;28;20640;-73
2024/04/03 06:08:51;;;;;;;1.47;1.23;;;8.50;93.50;;;;;;4981714;28;20973;-76
2024/04/03 06:11:18;;;;;;;3.10;1.10;;;8.40;94.60;;;;;;4983225;28;20626;-78
2024/04/03 06:13:45;;;;;;;2.23;1.23;;;8.40;93.40;;;;;;5019243;28;20298;-77
2024/04/03 06:16:12;;;;;;;0.70;0.70;;;8.50;92.30;;;;;;5012803;28;20639;-77
2024/04/03 06:18:37;;;;;;;1.10;0.80;;;8.50;93.00;;;;;;5039552;28;20680;-78
2024/04/03 06:21:12;;;;;;;1.10;0.97;;;8.60;92.20;;;;;;5029697;28;20622;-78
2024/04/03 06:23:38;;;;;;;3.77;1.10;;;8.70;92.20;;;;;;5019019;28;20211;-78
2024/04/03 06:26:05;;;;;;;1.33;1.03;;;8.70;91.60;;;;;;5025354;28;20630;-78
2024/04/03 06:28:31;;;;;;;1.93;1.10;;;8.70;91.60;;;;;;5042342;28;20607;-78
2024/04/03 06:30:59;;;;;;;1.60;1.10;;;8.70;91.40;;;;;;5064563;28;20804;-78
2024/04/03 06:33:25;;;;;;;1.20;1.10;;;8.80;91.60;;;;;;5010383;28;20207;-78
2024/04/03 06:35:52;;;;;;;4.20;3.10;;;8.90;91.60;;;;;;5009859;28;20605;-78
2024/04/03 06:38:18;;;;;;;2.00;1.33;;;8.90;91.30;;;;;;5001840;28;20668;-78
2024/04/03 06:40:44;;;;;;;1.90;1.70;;;8.90;91.60;;;;;;5012781;28;20629;-78
2024/04/03 06:43:10;;;;;;;2.30;1.17;;;8.90;91.70;;;;;;5001039;28;20211;-78
2024/04/03 06:45:37;;;;;;;2.20;1.60;;;8.90;92.70;;;;;;4987661;28;21103;-77
2024/04/03 06:48:06;;;;;;;2.47;1.17;;;8.90;91.90;;;;;;5020249;28;20282;-78
2024/04/03 06:50:31;;;;;;;2.37;1.30;;;9.00;92.40;;;;;;5042244;28;20720;-77
2024/04/03 06:53:00;;;;;;;1.47;1.37;;;9.00;92.60;;;;;;4991971;28;20758;-77
2024/04/03 06:55:26;;;;;;;1.57;1.30;;;9.00;92.40;;;;;;5025029;28;20241;-77
2024/04/03 06:57:53;;;;;;;2.90;1.60;;;9.00;92.70;;;;;;5008283;28;20763;-78
2024/04/03 07:00:19;;;;;;;1.57;1.47;;;9.00;92.20;;;;;;4997955;28;20233;-78
2024/04/03 07:02:48;;;;;;;1.97;1.27;;;9.00;92.00;;;;;;4982015;28;20641;-77
2024/04/03 07:05:15;;;;;;;1.40;1.30;;;9.10;91.80;;;;;;4966689;28;22067;-77
2024/04/03 07:07:44;;;;;;;2.87;1.50;;;9.20;91.80;;;;;;4962153;28;20630;-80
2024/04/03 07:10:10;;;;;;;1.10;1.00;;;9.10;91.60;;;;;;4967205;28;20660;-77
2024/04/03 07:12:36;;;;;;;3.90;1.23;;;9.10;91.10;;;;;;4981674;28;20621;-77
2024/04/03 07:15:04;;;;;;;1.10;1.00;;;9.20;91.10;;;;;;4987036;28;20223;-77
2024/04/03 07:17:32;;;;;;;1.10;1.00;;;9.20;91.20;;;;;;5007705;28;21220;-78
2024/04/03 07:19:58;;;;;;;1.40;1.23;;;9.30;91.70;;;;;;5032236;28;20644;-78
2024/04/03 07:22:26;;;;;;;1.10;1.10;;;9.30;93.30;;;;;;5001606;28;20614;-78
2024/04/03 07:24:52;;;;;;;1.53;1.20;;;9.30;92.60;;;;;;4998463;28;20289;-78
2024/04/03 07:27:27;;;;;;;3.17;1.60;;;9.40;92.10;;;;;;4987376;28;21070;-79
2024/04/03 07:29:53;;;;;;;3.93;1.00;;;9.40;91.70;;;;;;4976518;28;20629;-79
2024/04/03 07:32:20;;;;;;;1.53;1.23;;;9.50;91.70;;;;;;5006857;28;20634;-78
2024/04/03 07:34:46;;;;;;;1.37;1.27;;;9.60;91.50;;;;;;4977016;28;20204;-78
2024/04/03 07:37:13;;;;;;;2.50;1.10;;;9.60;91.60;;;;;;4987090;28;20657;-78
2024/04/03 07:39:40;;;;;;;1.70;1.13;;;9.60;90.80;;;;;;4971144;28;21184;-79
2024/04/03 07:42:07;;;;;;;1.23;0.97;;;9.60;91.50;;;;;;4976435;28;20645;-79
2024/04/03 07:44:32;;;;;;;1.23;1.13;;;9.70;91.70;;;;;;4978757;28;20644;-78
2024/04/03 07:46:59;;;;;;;1.07;1.07;;;9.80;91.80;;;;;;4980450;28;20632;-78
2024/04/03 07:49:25;;;;;;;4.60;1.40;;;9.80;91.00;;;;;;4972621;28;20302;-78
2024/04/03 07:51:52;;;;;;;1.70;1.00;;;9.90;91.10;;;;;;4969729;28;20717;-78
2024/04/03 07:54:18;;;;;;;1.70;1.00;;;9.90;91.50;;;;;;4989693;28;20663;-79
2024/04/03 07:56:46;;;;;;;1.40;0.87;;;9.90;91.00;;;;;;5031802;28;21183;-78
2024/04/03 07:59:12;;;;;;;2.77;0.77;;;10.10;90.00;;;;;;5038216;28;20629;-78
2024/04/03 08:01:39;;;;;;;2.00;1.20;;;10.10;90.30;;;;;;5005802;28;20735;-78
2024/04/03 08:04:05;;;;;;;2.07;1.30;;;10.30;90.60;;;;;;5026088;28;20739;-78
2024/04/03 08:06:32;;;;;;;1.80;0.83;;;10.30;90.10;;;;;;5004936;28;20740;-79
2024/04/03 08:08:57;;;;;;;2.93;1.30;;;10.30;90.00;;;;;;4998260;28;20239;-78
2024/04/03 08:11:24;;;;;;;1.33;1.23;;;10.40;90.20;;;;;;4994260;28;20635;-78
2024/04/03 08:13:52;;;;;;;1.50;1.30;;;10.40;90.10;;;;;;5015145;28;20304;-79
2024/04/03 08:16:19;;;;;;;1.93;1.07;;;10.60;90.00;;;;;;4989503;28;21082;-78
2024/04/03 08:18:45;;;;;;;3.50;1.50;;;10.60;88.70;;;;;;5010063;28;20675;-78
2024/04/03 08:21:11;;;;;;;1.30;1.20;;;10.70;89.50;;;;;;5001864;28;20633;-78
2024/04/03 08:23:38;;;;;;;3.17;1.00;;;10.70;89.80;;;;;;5026259;28;20212;-78
2024/04/03 08:26:06;;;;;;;2.97;1.20;;;10.90;89.40;;;;;;5026712;28;20629;-78
2024/04/03 08:28:32;;;;;;;1.60;1.17;;;11.00;88.80;;;;;;5026810;28;20629;-78
2024/04/03 08:31:00;;;;;;;1.70;1.10;;;11.20;87.90;;;;;;4978356;28;20628;-78
2024/04/03 08:33:26;;;;;;;2.93;1.10;;;11.30;87.50;;;;;;4978454;28;20713;-78
2024/04/03 08:36:00;;;;;;;1.43;1.10;;;11.40;86.60;;;;;;4984925;28;21012;-78
2024/04/03 08:38:26;;;;;;;1.57;1.40;;;11.40;86.20;;;;;;5002979;28;20229;-78
2024/04/03 08:40:57;;;;;;;0.93;0.90;;;11.60;86.10;;;;;;4985097;28;20630;-78
2024/04/03 08:43:23;;;;;;;1.87;1.27;;;11.70;85.90;;;;;;5021770;28;20644;-78
2024/04/03 08:45:52;;;;;;;0.80;0.80;;;11.90;85.10;;;;;;5009558;28;20625;-78
2024/04/03 08:48:22;;;;;;;1.63;1.37;;;12.00;82.90;;;;;;4992905;28;20649;-78
2024/04/03 08:50:48;;;;;;;2.53;1.30;;;11.90;83.30;;;;;;5010676;28;21197;-78
2024/04/03 08:53:18;;;;;;;2.63;1.30;;;12.00;84.90;;;;;;4975293;28;20983;-78
2024/04/03 08:55:45;;;;;;;1.10;0.83;;;12.20;83.30;;;;;;4971153;28;20734;-78
2024/04/03 08:58:12;;;;;;;2.73;1.20;;;12.20;81.70;;;;;;4976086;28;20755;-78
2024/04/03 09:00:38;;;;;;;1.10;1.00;;;12.20;82.10;;;;;;4982505;28;20745;-78
2024/04/03 09:03:05;;;;;;;6.30;1.53;;;12.20;83.10;;;;;;4975420;28;20720;-78
2024/04/03 09:05:32;;;;;;;1.40;1.10;;;12.20;83.50;;;;;;4981986;28;20199;-78
2024/04/03 09:08:03;;;;;;;2.73;1.13;;;12.20;82.50;;;;;;4974476;28;20656;-78
2024/04/03 09:10:30;;;;;;;2.40;1.30;;;12.30;82.20;;;;;;4982256;28;20782;-78
2024/04/03 09:13:03;;;;;;;1.13;1.00;;;12.30;80.90;;;;;;4984665;28;20667;-78
2024/04/03 09:15:29;;;;;;;0.80;0.80;;;12.20;81.90;;;;;;4984893;28;20737;-78
2024/04/03 09:18:00;;;;;;;1.73;1.40;;;12.30;82.10;;;;;;5017645;28;21312;-78
2024/04/03 09:20:26;;;;;;;1.67;1.23;;;12.40;81.90;;;;;;4981680;28;20296;-78
2024/04/03 09:22:55;;;;;;;5.40;0.90;;;12.60;79.90;;;;;;5036298;28;21040;-78
2024/04/03 09:25:23;;;;;;;1.17;0.80;;;12.80;80.70;;;;;;5023916;28;20264;-78
2024/04/03 09:27:50;;;;;;;1.20;0.80;;;12.80;81.00;;;;;;5011872;28;20635;-78
2024/04/03 09:30:16;;;;;;;1.03;0.53;;;13.00;80.10;;;;;;5017030;28;20726;-78
2024/04/03 09:32:43;;;;;;;2.20;0.50;;;13.00;76.70;;;;;;5001579;28;20637;-78
2024/04/03 09:35:11;;;;;;;1.63;0.80;;;13.10;78.50;;;;;;5052559;28;20623;-78
2024/04/03 09:37:38;;;;;;;0.60;0.60;;;13.30;77.40;;;;;;5026520;28;20664;-78
2024/04/03 09:40:06;;;;;;;1.67;0.70;;;13.50;76.20;;;;;;4983970;28;20733;-78
2024/04/03 09:42:33;;;;;;;1.03;0.93;;;13.40;76.70;;;;;;5045870;28;20628;-78
2024/04/03 09:45:06;;;;;;;0.83;0.70;;;13.50;76.60;;;;;;4994659;28;20637;-78
2024/04/03 09:47:35;;;;;;;2.17;1.00;;;13.80;76.70;;;;;;5005007;28;20745;-78
2024/04/03 09:50:01;;;;;;;1.90;1.17;;;14.00;73.30;;;;;;5028491;28;20739;-78
2024/04/03 09:52:29;;;;;;;0.70;0.70;;;14.20;75.30;;;;;;5047536;28;20638;-78
2024/04/03 09:54:57;;;;;;;0.70;0.70;;;14.20;72.80;;;;;;4999681;28;20731;-78
2024/04/03 09:57:26;;;;;;;1.60;0.93;;;14.30;73.60;;;;;;5002359;28;20638;-78
2024/04/03 09:59:51;;;;;;;0.80;0.80;;;14.40;72.70;;;;;;4963728;28;20730;-77
2024/04/03 10:02:19;;;;;;;1.43;1.00;;;14.20;72.10;;;;;;4961666;28;20725;-78
2024/04/03 10:04:47;;;;;;;1.23;1.10;;;14.20;73.00;;;;;;4965441;28;20662;-78
2024/04/03 10:07:18;;;;;;;0.90;0.60;;;14.10;73.80;;;;;;4992930;28;20644;-78
2024/04/03 10:09:49;;;;;;;1.70;1.10;;;14.10;71.40;;;;;;5010013;28;20643;-78
2024/04/03 10:12:17;;;;;;;15.33;1.87;;;14.10;71.40;;;;;;4976057;28;20625;-78
2024/04/03 10:14:44;;;;;;;1.30;1.00;;;14.00;73.50;;;;;;4975020;28;21342;-78
2024/04/03 10:17:15;;;;;;;2.30;0.70;;;14.10;73.40;;;;;;4963586;28;20691;-79
2024/04/03 10:19:42;;;;;;;0.70;0.60;;;14.10;75.40;;;;;;4968116;28;20664;-78
2024/04/03 10:22:14;;;;;;;1.27;0.53;;;14.10;80.30;;;;;;4971463;28;20633;-79
2024/04/03 10:24:42;;;;;;;1.40;0.40;;;13.90;83.00;;;;;;4967552;28;20626;-79
2024/04/03 10:27:09;;;;;;;1.07;0.63;;;13.70;84.20;;;;;;4975190;28;20643;-78
2024/04/03 10:29:35;;;;;;;2.20;0.70;;;13.60;83.90;;;;;;4986958;28;20632;-78
2024/04/03 10:32:03;;;;;;;0.40;0.40;;;13.70;83.20;;;;;;5067250;28;21386;-80
2024/04/03 10:34:31;;;;;;;0.40;0.40;;;13.40;84.70;;;;;;4984490;28;20297;-76
2024/04/03 10:36:58;;;;;;;1.40;0.50;;;13.30;86.30;;;;;;4980810;28;20636;-75
2024/04/03 10:39:24;;;;;;;0.70;0.50;;;13.30;86.10;;;;;;5055021;28;20779;-75
2024/04/03 10:41:57;;;;;;;0.47;0.40;;;13.10;88.20;;;;;;5009909;28;20625;-76
2024/04/03 10:44:23;;;;;;;0.57;0.50;;;13.10;89.00;;;;;;5020295;28;20649;-75
2024/04/03 10:46:50;;;;;;;0.60;0.50;;;12.90;85.80;;;;;;5006800;28;20673;-75
2024/04/03 10:49:18;;;;;;;1.17;0.57;;;13.00;88.60;;;;;;5068017;28;20635;-78
2024/04/03 10:51:45;;;;;;;0.93;0.80;;;12.90;86.80;;;;;;4984620;28;20628;-75
2024/04/03 10:54:14;;;;;;;0.50;0.37;;;12.90;89.40;;;;;;4983508;28;20639;-78
2024/04/03 10:56:43;;;;;;;0.90;0.47;;;13.10;89.40;;;;;;4975758;28;20639;-78
2024/04/03 10:59:09;;;;;;;1.10;0.70;;;13.10;87.50;;;;;;4975402;28;21168;-76
2024/04/03 11:01:36;;;;;;;0.60;0.60;;;13.10;87.90;;;;;;4977657;28;20720;-78
2024/04/03 11:04:03;;;;;;;0.60;0.60;;;13.10;88.30;;;;;;4970420;28;20639;-78
2024/04/03 11:06:32;;;;;;;0.60;0.40;;;13.40;90.00;;;;;;4975052;28;20645;-78
2024/04/03 11:08:58;;;;;;;2.33;0.70;;;13.60;85.20;;;;;;4968973;28;20673;-78
2024/04/03 11:11:26;;;;;;;0.40;0.40;;;13.80;87.40;;;;;;4995244;28;20635;-78
2024/04/03 11:13:52;;;;;;;0.80;0.53;;;13.90;85.90;;;;;;5016387;28;20682;-78
2024/04/03 11:16:22;;;;;;;0.50;0.43;;;13.80;86.20;;;;;;5055076;28;20968;-79
2024/04/03 11:18:47;;;;;;;0.83;0.50;;;13.80;85.80;;;;;;5022729;28;20667;-78
2024/04/03 11:21:14;;;;;;;2.40;0.50;;;13.70;83.70;;;;;;5026537;28;21093;-78
2024/04/03 11:23:42;;;;;;;0.60;0.60;;;13.50;82.90;;;;;;5031997;28;20281;-78
2024/04/03 11:26:08;;;;;;;0.80;0.40;;;13.50;83.20;;;;;;5015372;28;20687;-78
2024/04/03 11:28:35;;;;;;;0.63;0.57;;;13.60;83.70;;;;;;4983044;28;20947;-78
2024/04/03 11:31:02;;;;;;;1.10;0.67;;;13.70;83.20;;;;;;4974854;28;20633;-78
2024/04/03 11:33:28;;;;;;;0.50;0.50;;;13.70;83.20;;;;;;4985824;28;20637;-78
2024/04/03 11:35:54;;;;;;;1.50;0.60;;;13.60;83.60;;;;;;4973738;28;21218;-78
2024/04/03 11:38:20;;;;;;;0.57;0.40;;;13.70;82.90;;;;;;5005977;28;20257;-78
2024/04/03 11:40:48;;;;;;;1.47;0.53;;;13.60;83.90;;;;;;4983224;28;21198;-79
2024/04/03 11:43:14;;;;;;;1.33;0.40;;;13.40;84.40;;;;;;5015830;28;20292;-78
2024/04/03 11:45:41;;;;;;;0.63;0.50;;;13.40;87.30;;;;;;5006700;28;20624;-78
2024/04/03 11:48:07;;;;;;;0.70;0.57;;;13.20;89.20;;;;;;5025941;28;20206;-78
2024/04/03 11:50:34;;;;;;;1.33;0.50;;;13.20;90.20;;;;;;5006174;28;21078;-78
2024/04/03 11:53:00;;;;;;;0.83;0.50;;;13.30;91.10;;;;;;4978528;28;20648;-78
2024/04/03 11:55:26;;;;;;;0.70;0.70;;;13.30;90.50;;;;;;5029031;28;20981;-78
2024/04/03 11:57:53;;;;;;;0.70;0.53;;;13.10;90.30;;;;;;5000334;28;20978;-79
2024/04/03 12:00:20;;;;;;;1.23;1.10;;;13.30;91.40;;;;;;4992098;28;21273;-78
2024/04/03 12:02:46;;;;;;;0.67;0.50;;;13.40;91.30;;;;;;5012235;28;20622;-78
2024/04/03 12:05:13;;;;;;;0.70;0.50;;;13.60;91.00;;;;;;4973199;28;20714;-78
2024/04/03 12:07:39;;;;;;;0.60;0.50;;;13.40;90.10;;;;;;4966922;28;20237;-78
2024/04/03 12:10:08;;;;;;;3.27;0.70;;;13.30;90.50;;;;;;4983027;28;20659;-77
2024/04/03 12:12:34;;;;;;;0.77;0.60;;;13.40;91.00;;;;;;5007151;28;20202;-78
2024/04/03 12:15:03;;;;;;;0.47;0.40;;;13.30;91.20;;;;;;5041285;28;20630;-78
2024/04/03 12:17:30;;;;;;;0.70;0.70;;;13.10;92.30;;;;;;5026112;28;20647;-78
2024/04/03 12:20:06;;;;;;;1.87;0.60;;;13.10;92.40;;;;;;5018905;28;20697;-78
2024/04/03 12:22:32;;;;;;;0.70;0.50;;;13.10;92.20;;;;;;5018564;28;20639;-78
2024/04/03 12:25:00;;;;;;;0.87;0.50;;;13.20;92.30;;;;;;5060755;28;20716;-78
2024/04/03 12:27:27;;;;;;;0.43;0.43;;;13.30;92.60;;;;;;5046863;28;21153;-78
2024/04/03 12:29:54;;;;;;;1.07;0.80;;;12.90;92.00;;;;;;5042812;28;20664;-78
2024/04/03 12:32:21;;;;;;;0.83;0.80;;;12.90;93.00;;;;;;5020979;28;20635;-79
2024/04/03 12:34:48;;;;;;;1.50;1.27;;;12.90;93.10;;;;;;4996899;28;20633;-78
2024/04/03 12:37:15;;;;;;;0.50;0.50;;;13.00;93.50;;;;;;4991804;28;20629;-78
2024/04/03 12:39:42;;;;;;;0.40;0.30;;;12.90;93.10;;;;;;5037715;28;20680;-78
2024/04/03 12:42:08;;;;;;;0.40;0.40;;;12.80;92.30;;;;;;5046807;28;20633;-78
2024/04/03 12:44:34;;;;;;;0.70;0.70;;;12.90;92.90;;;;;;5028914;28;20704;-78
2024/04/03 12:47:06;;;;;;;0.80;0.50;;;12.90;93.30;;;;;;5023092;28;20210;-79
2024/04/03 12:49:35;;;;;;;0.67;0.53;;;12.90;93.90;;;;;;5020300;28;21110;-78
2024/04/03 12:52:01;;;;;;;1.47;0.40;;;12.90;94.00;;;;;;5010008;28;20630;-79
2024/04/03 12:54:28;;;;;;;0.60;0.60;;;12.80;93.90;;;;;;5008487;28;20616;-78
2024/04/03 12:56:54;;;;;;;1.33;1.13;;;12.70;94.00;;;;;;5042597;28;20661;-78